sensor_id;sensor_type;location;lat;lon;timestamp;pressure;altitude;pressure_sealevel;temperature;humidity
62248;BME280;48237;50.140;8.486;2023-02-19T00:01:44;99914.27;;;10.24;89.52
62248;BME280;48237;50.140;8.486;2023-02-19T00:04:13;99910.49;;;10.60;87.85
62248;BME280;48237;50.140;8.486;2023-02-19T00:06:41;99912.11;;;10.67;87.55
62248;BME280;48237;50.140;8.486;2023-02-19T00:09:09;99904.96;;;10.68;87.09
62248;BME280;48237;50.140;8.486;2023-02-19T00:11:37;99895.51;;;10.84;86.56
62248;BME280;48237;50.140;8.486;2023-02-19T00:14:05;99895.55;;;10.41;87.61
62248;BME280;48237;50.140;8.486;2023-02-19T00:16:34;99892.37;;;10.83;83.79
62248;BME280;48237;50.140;8.486;2023-02-19T00:19:04;99891.47;;;11.10;83.44
62248;BME280;48237;50.140;8.486;2023-02-19T00:21:32;99893.57;;;10.70;84.12
62248;BME280;48237;50.140;8.486;2023-02-19T00:24:01;99897.80;;;10.96;83.46
62248;BME280;48237;50.140;8.486;2023-02-19T00:26:30;99896.46;;;11.15;81.79
62248;BME280;48237;50.140;8.486;2023-02-19T00:28:57;99900.96;;;10.52;84.71
62248;BME280;48237;50.140;8.486;2023-02-19T00:31:27;99902.91;;;10.13;89.24
62248;BME280;48237;50.140;8.486;2023-02-19T00:33:56;99901.63;;;10.86;85.70
62248;BME280;48237;50.140;8.486;2023-02-19T00:36:24;99900.62;;;10.98;84.73
62248;BME280;48237;50.140;8.486;2023-02-19T00:38:52;99906.00;;;11.21;85.22
62248;BME280;48237;50.140;8.486;2023-02-19T00:41:21;99909.95;;;10.42;87.13
62248;BME280;48237;50.140;8.486;2023-02-19T00:43:51;99910.89;;;10.73;87.30
62248;BME280;48237;50.140;8.486;2023-02-19T00:46:21;99892.56;;;10.55;85.91
62248;BME280;48237;50.140;8.486;2023-02-19T00:48:49;99894.68;;;11.13;83.80
62248;BME280;48237;50.140;8.486;2023-02-19T00:51:16;99893.38;;;11.23;82.08
62248;BME280;48237;50.140;8.486;2023-02-19T00:53:44;99878.85;;;10.31;85.18
62248;BME280;48237;50.140;8.486;2023-02-19T00:56:11;99887.19;;;10.84;83.10
62248;BME280;48237;50.140;8.486;2023-02-19T00:58:38;99897.05;;;10.76;85.14
62248;BME280;48237;50.140;8.486;2023-02-19T01:01:06;99896.50;;;11.17;83.90
62248;BME280;48237;50.140;8.486;2023-02-19T01:03:34;99887.30;;;10.50;85.48
62248;BME280;48237;50.140;8.486;2023-02-19T01:06:04;99881.35;;;10.45;85.43
62248;BME280;48237;50.140;8.486;2023-02-19T01:08:32;99884.04;;;10.26;86.69
62248;BME280;48237;50.140;8.486;2023-02-19T01:11:00;99878.02;;;10.72;85.21
62248;BME280;48237;50.140;8.486;2023-02-19T01:13:29;99881.74;;;10.23;85.51
62248;BME280;48237;50.140;8.486;2023-02-19T01:16:02;99877.93;;;11.10;82.49
62248;BME280;48237;50.140;8.486;2023-02-19T01:18:30;99873.22;;;11.22;81.47
62248;BME280;48237;50.140;8.486;2023-02-19T01:20:57;99871.46;;;11.30;80.75
62248;BME280;48237;50.140;8.486;2023-02-19T01:23:25;99866.77;;;11.57;80.32
62248;BME280;48237;50.140;8.486;2023-02-19T01:25:52;99870.74;;;11.39;82.00
62248;BME280;48237;50.140;8.486;2023-02-19T01:28:19;99871.44;;;11.35;80.81
62248;BME280;48237;50.140;8.486;2023-02-19T01:30:46;99870.90;;;11.47;81.15
62248;BME280;48237;50.140;8.486;2023-02-19T01:33:13;99868.13;;;11.15;81.33
62248;BME280;48237;50.140;8.486;2023-02-19T01:35:40;99861.71;;;11.43;81.40
62248;BME280;48237;50.140;8.486;2023-02-19T01:38:08;99864.08;;;10.65;83.67
62248;BME280;48237;50.140;8.486;2023-02-19T01:40:35;99854.22;;;11.12;82.67
62248;BME280;48237;50.140;8.486;2023-02-19T01:43:08;99860.96;;;10.28;87.78
62248;BME280;48237;50.140;8.486;2023-02-19T01:45:37;99854.31;;;11.03;84.63
62248;BME280;48237;50.140;8.486;2023-02-19T01:48:09;99848.36;;;10.65;86.03
62248;BME280;48237;50.140;8.486;2023-02-19T01:50:41;99844.95;;;10.50;85.80
62248;BME280;48237;50.140;8.486;2023-02-19T01:53:12;99837.88;;;10.12;88.39
62248;BME280;48237;50.140;8.486;2023-02-19T01:55:41;99843.90;;;10.03;91.44
62248;BME280;48237;50.140;8.486;2023-02-19T01:58:10;99846.62;;;9.85;92.45
62248;BME280;48237;50.140;8.486;2023-02-19T02:00:37;99845.72;;;8.99;98.90
62248;BME280;48237;50.140;8.486;2023-02-19T02:03:05;99836.35;;;9.68;96.98
62248;BME280;48237;50.140;8.486;2023-02-19T02:05:44;99834.19;;;9.31;96.23
62248;BME280;48237;50.140;8.486;2023-02-19T02:08:13;99836.53;;;10.05;94.39
62248;BME280;48237;50.140;8.486;2023-02-19T02:10:42;99837.01;;;9.99;93.39
62248;BME280;48237;50.140;8.486;2023-02-19T02:13:10;99827.46;;;9.02;95.27
62248;BME280;48237;50.140;8.486;2023-02-19T02:15:44;99826.91;;;9.32;95.56
62248;BME280;48237;50.140;8.486;2023-02-19T02:18:23;99830.88;;;10.17;92.53
62248;BME280;48237;50.140;8.486;2023-02-19T02:21:10;99827.82;;;10.28;91.88
62248;BME280;48237;50.140;8.486;2023-02-19T02:23:53;99822.40;;;10.16;91.62
62248;BME280;48237;50.140;8.486;2023-02-19T02:26:39;99817.29;;;10.29;90.26
62248;BME280;48237;50.140;8.486;2023-02-19T02:30:24;99817.86;;;10.23;90.66
62248;BME280;48237;50.140;8.486;2023-02-19T02:32:56;99818.91;;;10.31;89.84
62248;BME280;48237;50.140;8.486;2023-02-19T02:35:30;99819.26;;;10.01;92.18
62248;BME280;48237;50.140;8.486;2023-02-19T02:38:03;99815.49;;;9.59;94.90
62248;BME280;48237;50.140;8.486;2023-02-19T02:40:32;99810.98;;;10.16;91.07
62248;BME280;48237;50.140;8.486;2023-02-19T02:43:00;99796.90;;;10.16;91.18
62248;BME280;48237;50.140;8.486;2023-02-19T02:45:29;99793.85;;;10.21;90.76
62248;BME280;48237;50.140;8.486;2023-02-19T02:47:57;99806.13;;;10.39;89.02
62248;BME280;48237;50.140;8.486;2023-02-19T02:50:28;99808.57;;;9.98;92.43
62248;BME280;48237;50.140;8.486;2023-02-19T02:52:59;99806.36;;;9.84;94.26
62248;BME280;48237;50.140;8.486;2023-02-19T02:55:30;99799.56;;;10.55;90.86
62248;BME280;48237;50.140;8.486;2023-02-19T02:57:59;99793.39;;;10.06;91.26
62248;BME280;48237;50.140;8.486;2023-02-19T03:00:28;99793.66;;;10.16;90.45
62248;BME280;48237;50.140;8.486;2023-02-19T03:02:57;99790.53;;;9.78;92.91
62248;BME280;48237;50.140;8.486;2023-02-19T03:05:26;99795.04;;;9.52;94.61
62248;BME280;48237;50.140;8.486;2023-02-19T03:07:57;99797.39;;;9.45;95.22
62248;BME280;48237;50.140;8.486;2023-02-19T03:10:31;99795.09;;;10.23;91.74
62248;BME280;48237;50.140;8.486;2023-02-19T03:13:02;99790.73;;;9.39;96.77
62248;BME280;48237;50.140;8.486;2023-02-19T03:15:35;99793.57;;;9.37;96.93
62248;BME280;48237;50.140;8.486;2023-02-19T03:18:07;99790.95;;;9.76;93.94
62248;BME280;48237;50.140;8.486;2023-02-19T03:20:39;99791.64;;;10.06;91.69
62248;BME280;48237;50.140;8.486;2023-02-19T03:23:10;99790.45;;;10.17;92.23
62248;BME280;48237;50.140;8.486;2023-02-19T03:25:40;99794.13;;;9.91;93.06
62248;BME280;48237;50.140;8.486;2023-02-19T03:30:24;99787.73;;;10.08;95.93
62248;BME280;48237;50.140;8.486;2023-02-19T03:32:56;99779.51;;;9.77;96.58
62248;BME280;48237;50.140;8.486;2023-02-19T03:35:26;99773.89;;;9.66;96.56
62248;BME280;48237;50.140;8.486;2023-02-19T03:38:01;99774.76;;;9.91;94.73
62248;BME280;48237;50.140;8.486;2023-02-19T03:40:35;99775.60;;;9.72;94.97
62248;BME280;48237;50.140;8.486;2023-02-19T03:43:15;99774.86;;;9.18;97.90
62248;BME280;48237;50.140;8.486;2023-02-19T03:45:49;99783.50;;;9.94;95.84
62248;BME280;48237;50.140;8.486;2023-02-19T03:48:27;99788.90;;;9.28;100.00
62248;BME280;48237;50.140;8.486;2023-02-19T03:51:04;99785.49;;;9.50;100.00
62248;BME280;48237;50.140;8.486;2023-02-19T03:53:39;99789.73;;;9.51;100.00
62248;BME280;48237;50.140;8.486;2023-02-19T03:56:13;99790.80;;;9.17;100.00
62248;BME280;48237;50.140;8.486;2023-02-19T03:58:49;99790.69;;;9.08;100.00
62248;BME280;48237;50.140;8.486;2023-02-19T04:01:25;99796.18;;;9.13;100.00
62248;BME280;48237;50.140;8.486;2023-02-19T04:03:57;99802.35;;;8.83;100.00
62248;BME280;48237;50.140;8.486;2023-02-19T04:06:28;99799.13;;;9.75;100.00
62248;BME280;48237;50.140;8.486;2023-02-19T04:08:58;99799.13;;;9.55;100.00
62248;BME280;48237;50.140;8.486;2023-02-19T04:11:28;99790.94;;;9.58;100.00
62248;BME280;48237;50.140;8.486;2023-02-19T04:14:00;99796.76;;;9.74;99.04
62248;BME280;48237;50.140;8.486;2023-02-19T04:16:29;99794.73;;;9.66;97.92
62248;BME280;48237;50.140;8.486;2023-02-19T04:18:58;99793.95;;;10.40;93.95
62248;BME280;48237;50.140;8.486;2023-02-19T04:21:29;99787.48;;;10.37;95.87
62248;BME280;48237;50.140;8.486;2023-02-19T04:24:01;99780.92;;;10.55;93.89
62248;BME280;48237;50.140;8.486;2023-02-19T04:26:30;99790.99;;;9.88;96.42
62248;BME280;48237;50.140;8.486;2023-02-19T04:28:59;99791.45;;;10.25;93.08
62248;BME280;48237;50.140;8.486;2023-02-19T04:31:27;99789.68;;;9.70;96.54
62248;BME280;48237;50.140;8.486;2023-02-19T04:33:55;99786.31;;;9.24;100.00
62248;BME280;48237;50.140;8.486;2023-02-19T04:36:22;99789.00;;;9.07;100.00
62248;BME280;48237;50.140;8.486;2023-02-19T04:38:49;99796.31;;;9.14;100.00
62248;BME280;48237;50.140;8.486;2023-02-19T04:41:16;99804.60;;;9.75;95.45
62248;BME280;48237;50.140;8.486;2023-02-19T04:43:43;99811.52;;;9.61;96.38
62248;BME280;48237;50.140;8.486;2023-02-19T04:46:10;99812.92;;;9.36;97.89
62248;BME280;48237;50.140;8.486;2023-02-19T04:48:37;99818.81;;;9.59;97.74
62248;BME280;48237;50.140;8.486;2023-02-19T04:51:05;99821.60;;;10.28;93.49
62248;BME280;48237;50.140;8.486;2023-02-19T04:53:33;99825.16;;;10.24;93.19
62248;BME280;48237;50.140;8.486;2023-02-19T04:56:05;99836.68;;;9.94;92.78
62248;BME280;48237;50.140;8.486;2023-02-19T04:58:33;99835.88;;;10.31;91.06
62248;BME280;48237;50.140;8.486;2023-02-19T05:01:00;99841.79;;;10.60;91.54
62248;BME280;48237;50.140;8.486;2023-02-19T05:03:28;99836.39;;;9.55;95.63
62248;BME280;48237;50.140;8.486;2023-02-19T05:05:55;99836.08;;;10.04;95.09
62248;BME280;48237;50.140;8.486;2023-02-19T05:08:23;99833.24;;;9.65;93.66
62248;BME280;48237;50.140;8.486;2023-02-19T05:10:49;99833.42;;;9.33;96.66
62248;BME280;48237;50.140;8.486;2023-02-19T05:13:16;99834.49;;;9.42;96.47
62248;BME280;48237;50.140;8.486;2023-02-19T05:15:54;99837.14;;;8.71;100.00
62248;BME280;48237;50.140;8.486;2023-02-19T05:18:21;99848.19;;;9.97;93.98
62248;BME280;48237;50.140;8.486;2023-02-19T05:20:50;99855.45;;;9.14;97.97
62248;BME280;48237;50.140;8.486;2023-02-19T05:23:17;99850.77;;;9.66;94.54
62248;BME280;48237;50.140;8.486;2023-02-19T05:25:45;99851.33;;;10.11;92.94
62248;BME280;48237;50.140;8.486;2023-02-19T05:28:12;99852.84;;;10.49;90.16
62248;BME280;48237;50.140;8.486;2023-02-19T05:30:38;99850.48;;;9.91;92.00
62248;BME280;48237;50.140;8.486;2023-02-19T05:33:06;99852.69;;;10.76;87.27
62248;BME280;48237;50.140;8.486;2023-02-19T05:35:33;99852.69;;;10.44;88.96
62248;BME280;48237;50.140;8.486;2023-02-19T05:37:59;99849.54;;;10.78;86.64
62248;BME280;48237;50.140;8.486;2023-02-19T05:40:26;99862.34;;;10.30;89.42
62248;BME280;48237;50.140;8.486;2023-02-19T05:42:53;99867.49;;;10.15;88.95
62248;BME280;48237;50.140;8.486;2023-02-19T05:45:20;99865.76;;;9.23;94.32
62248;BME280;48237;50.140;8.486;2023-02-19T05:47:48;99875.06;;;9.89;90.98
62248;BME280;48237;50.140;8.486;2023-02-19T05:50:16;99876.49;;;10.20;88.43
62248;BME280;48237;50.140;8.486;2023-02-19T05:52:44;99870.51;;;10.42;89.24
62248;BME280;48237;50.140;8.486;2023-02-19T05:55:11;99870.36;;;9.41;93.14
62248;BME280;48237;50.140;8.486;2023-02-19T05:57:39;99876.43;;;10.33;91.44
62248;BME280;48237;50.140;8.486;2023-02-19T06:00:08;99879.20;;;9.94;91.59
62248;BME280;48237;50.140;8.486;2023-02-19T06:02:36;99888.50;;;9.53;92.62
62248;BME280;48237;50.140;8.486;2023-02-19T06:05:03;99896.64;;;10.29;91.55
62248;BME280;48237;50.140;8.486;2023-02-19T06:07:31;99903.87;;;10.06;92.19
62248;BME280;48237;50.140;8.486;2023-02-19T06:09:57;99907.55;;;9.33;94.66
62248;BME280;48237;50.140;8.486;2023-02-19T06:12:24;99901.33;;;9.99;93.45
62248;BME280;48237;50.140;8.486;2023-02-19T06:14:51;99903.53;;;9.79;91.12
62248;BME280;48237;50.140;8.486;2023-02-19T06:17:19;99915.11;;;8.91;97.48
62248;BME280;48237;50.140;8.486;2023-02-19T06:19:45;99917.73;;;9.39;95.18
62248;BME280;48237;50.140;8.486;2023-02-19T06:22:13;99925.30;;;10.10;90.94
62248;BME280;48237;50.140;8.486;2023-02-19T06:24:40;99931.89;;;10.14;92.50
62248;BME280;48237;50.140;8.486;2023-02-19T06:27:10;99934.40;;;10.05;90.48
62248;BME280;48237;50.140;8.486;2023-02-19T06:29:37;99935.81;;;9.09;96.06
62248;BME280;48237;50.140;8.486;2023-02-19T06:32:04;99933.46;;;9.66;92.53
62248;BME280;48237;50.140;8.486;2023-02-19T06:34:33;99938.83;;;9.57;94.85
62248;BME280;48237;50.140;8.486;2023-02-19T06:37:00;99945.37;;;9.23;94.94
62248;BME280;48237;50.140;8.486;2023-02-19T06:39:27;99947.23;;;9.66;92.45
62248;BME280;48237;50.140;8.486;2023-02-19T06:41:54;99960.54;;;9.65;91.85
62248;BME280;48237;50.140;8.486;2023-02-19T06:44:22;99965.34;;;9.25;91.68
62248;BME280;48237;50.140;8.486;2023-02-19T06:46:49;99966.71;;;10.10;89.42
62248;BME280;48237;50.140;8.486;2023-02-19T06:49:15;99976.23;;;10.39;87.53
62248;BME280;48237;50.140;8.486;2023-02-19T06:51:42;99978.15;;;9.86;88.98
62248;BME280;48237;50.140;8.486;2023-02-19T06:54:09;99979.35;;;10.26;86.65
62248;BME280;48237;50.140;8.486;2023-02-19T06:56:38;99980.44;;;11.12;83.26
62248;BME280;48237;50.140;8.486;2023-02-19T06:59:09;99980.06;;;9.15;91.62
62248;BME280;48237;50.140;8.486;2023-02-19T07:01:37;99988.50;;;10.67;85.54
62248;BME280;48237;50.140;8.486;2023-02-19T07:04:05;99992.87;;;10.92;87.60
62248;BME280;48237;50.140;8.486;2023-02-19T07:06:33;99998.27;;;10.90;87.24
62248;BME280;48237;50.140;8.486;2023-02-19T07:09:04;99985.91;;;11.05;89.25
62248;BME280;48237;50.140;8.486;2023-02-19T07:11:33;99992.94;;;10.48;91.10
62248;BME280;48237;50.140;8.486;2023-02-19T07:14:14;99994.21;;;10.86;90.26
62248;BME280;48237;50.140;8.486;2023-02-19T07:16:41;99993.01;;;10.37;91.70
62248;BME280;48237;50.140;8.486;2023-02-19T07:19:09;99995.22;;;10.71;89.26
62248;BME280;48237;50.140;8.486;2023-02-19T07:21:37;99997.55;;;10.64;92.65
62248;BME280;48237;50.140;8.486;2023-02-19T07:24:04;99997.74;;;10.54;91.49
62248;BME280;48237;50.140;8.486;2023-02-19T07:26:32;100001.22;;;10.36;90.88
62248;BME280;48237;50.140;8.486;2023-02-19T07:28:59;99998.70;;;10.83;91.50
62248;BME280;48237;50.140;8.486;2023-02-19T07:31:27;100008.90;;;10.70;90.00
62248;BME280;48237;50.140;8.486;2023-02-19T07:33:55;100000.82;;;10.25;92.40
62248;BME280;48237;50.140;8.486;2023-02-19T07:36:23;100012.04;;;11.34;88.94
62248;BME280;48237;50.140;8.486;2023-02-19T07:38:53;100008.60;;;10.89;90.12
62248;BME280;48237;50.140;8.486;2023-02-19T07:41:21;100011.37;;;10.13;92.99
62248;BME280;48237;50.140;8.486;2023-02-19T07:43:48;100017.09;;;10.07;91.92
62248;BME280;48237;50.140;8.486;2023-02-19T07:46:15;100023.95;;;10.02;91.66
62248;BME280;48237;50.140;8.486;2023-02-19T07:48:42;100028.52;;;10.13;92.76
62248;BME280;48237;50.140;8.486;2023-02-19T07:51:11;100037.93;;;10.21;90.26
62248;BME280;48237;50.140;8.486;2023-02-19T07:53:39;100042.93;;;9.85;92.50
62248;BME280;48237;50.140;8.486;2023-02-19T07:56:07;100042.35;;;9.95;96.59
62248;BME280;48237;50.140;8.486;2023-02-19T07:58:34;100045.25;;;10.04;93.47
62248;BME280;48237;50.140;8.486;2023-02-19T08:01:07;100052.92;;;10.31;90.22
62248;BME280;48237;50.140;8.486;2023-02-19T08:03:34;100060.42;;;11.14;88.99
62248;BME280;48237;50.140;8.486;2023-02-19T08:06:02;100061.42;;;10.79;88.38
62248;BME280;48237;50.140;8.486;2023-02-19T08:08:29;100069.06;;;10.70;88.24
62248;BME280;48237;50.140;8.486;2023-02-19T08:10:58;100079.49;;;11.27;86.48
62248;BME280;48237;50.140;8.486;2023-02-19T08:13:26;100082.15;;;10.59;90.32
62248;BME280;48237;50.140;8.486;2023-02-19T08:15:55;100086.44;;;11.03;87.70
62248;BME280;48237;50.140;8.486;2023-02-19T08:18:25;100096.69;;;10.72;92.18
62248;BME280;48237;50.140;8.486;2023-02-19T08:20:53;100104.95;;;9.44;96.64
62248;BME280;48237;50.140;8.486;2023-02-19T08:23:21;100110.76;;;10.17;92.11
62248;BME280;48237;50.140;8.486;2023-02-19T08:25:50;100114.70;;;11.22;86.60
62248;BME280;48237;50.140;8.486;2023-02-19T08:28:18;100115.67;;;11.18;86.87
62248;BME280;48237;50.140;8.486;2023-02-19T08:30:46;100127.80;;;11.09;87.62
62248;BME280;48237;50.140;8.486;2023-02-19T08:33:15;100131.88;;;9.74;98.00
62248;BME280;48237;50.140;8.486;2023-02-19T08:35:43;100130.65;;;10.84;88.13
62248;BME280;48237;50.140;8.486;2023-02-19T08:38:11;100135.51;;;10.57;93.22
62248;BME280;48237;50.140;8.486;2023-02-19T08:40:40;100140.35;;;11.43;85.62
62248;BME280;48237;50.140;8.486;2023-02-19T08:43:09;100142.68;;;10.74;88.95
62248;BME280;48237;50.140;8.486;2023-02-19T08:45:36;100150.89;;;11.59;84.66
62248;BME280;48237;50.140;8.486;2023-02-19T08:48:05;100152.25;;;10.51;92.54
62248;BME280;48237;50.140;8.486;2023-02-19T08:50:32;100141.47;;;11.48;83.97
62248;BME280;48237;50.140;8.486;2023-02-19T08:53:00;100139.99;;;10.94;86.60
62248;BME280;48237;50.140;8.486;2023-02-19T08:55:28;100137.60;;;10.89;86.74
62248;BME280;48237;50.140;8.486;2023-02-19T08:57:55;100138.00;;;11.70;83.14
62248;BME280;48237;50.140;8.486;2023-02-19T09:00:23;100134.83;;;11.31;87.67
62248;BME280;48237;50.140;8.486;2023-02-19T09:02:50;100136.08;;;12.22;82.65
62248;BME280;48237;50.140;8.486;2023-02-19T09:05:17;100138.88;;;12.06;80.97
62248;BME280;48237;50.140;8.486;2023-02-19T09:07:45;100142.14;;;12.30;79.91
62248;BME280;48237;50.140;8.486;2023-02-19T09:10:13;100143.91;;;12.07;83.08
62248;BME280;48237;50.140;8.486;2023-02-19T09:12:41;100150.15;;;11.47;85.12
62248;BME280;48237;50.140;8.486;2023-02-19T09:15:08;100157.27;;;11.18;82.28
62248;BME280;48237;50.140;8.486;2023-02-19T09:17:35;100164.27;;;11.18;84.43
62248;BME280;48237;50.140;8.486;2023-02-19T09:20:03;100165.35;;;11.53;84.11
62248;BME280;48237;50.140;8.486;2023-02-19T09:22:30;100177.19;;;11.32;84.61
62248;BME280;48237;50.140;8.486;2023-02-19T09:24:57;100176.73;;;11.07;84.17
62248;BME280;48237;50.140;8.486;2023-02-19T09:27:24;100173.82;;;11.11;84.60
62248;BME280;48237;50.140;8.486;2023-02-19T09:29:51;100170.36;;;11.02;85.69
62248;BME280;48237;50.140;8.486;2023-02-19T09:32:18;100173.75;;;10.08;88.18
62248;BME280;48237;50.140;8.486;2023-02-19T09:34:45;100174.65;;;11.15;87.83
62248;BME280;48237;50.140;8.486;2023-02-19T09:37:12;100173.92;;;10.79;88.92
62248;BME280;48237;50.140;8.486;2023-02-19T09:39:39;100179.76;;;10.37;91.09
62248;BME280;48237;50.140;8.486;2023-02-19T09:42:11;100179.30;;;10.22;93.69
62248;BME280;48237;50.140;8.486;2023-02-19T09:44:41;100183.79;;;10.56;92.44
62248;BME280;48237;50.140;8.486;2023-02-19T09:47:15;100188.55;;;10.08;100.00
62248;BME280;48237;50.140;8.486;2023-02-19T09:49:46;100185.28;;;9.81;100.00
62248;BME280;48237;50.140;8.486;2023-02-19T09:52:18;100190.22;;;10.58;92.99
62248;BME280;48237;50.140;8.486;2023-02-19T09:54:49;100195.07;;;9.78;100.00
62248;BME280;48237;50.140;8.486;2023-02-19T09:57:19;100198.28;;;10.32;98.79
62248;BME280;48237;50.140;8.486;2023-02-19T09:59:49;100200.59;;;10.35;97.38
62248;BME280;48237;50.140;8.486;2023-02-19T10:02:19;100207.30;;;10.82;97.88
62248;BME280;48237;50.140;8.486;2023-02-19T10:04:48;100211.11;;;10.59;95.24
62248;BME280;48237;50.140;8.486;2023-02-19T10:07:18;100214.19;;;10.55;95.81
62248;BME280;48237;50.140;8.486;2023-02-19T10:09:50;100220.17;;;10.47;97.00
62248;BME280;48237;50.140;8.486;2023-02-19T10:12:23;100228.85;;;11.02;94.06
62248;BME280;48237;50.140;8.486;2023-02-19T10:14:53;100233.00;;;11.43;90.48
62248;BME280;48237;50.140;8.486;2023-02-19T10:17:25;100237.73;;;10.72;96.63
62248;BME280;48237;50.140;8.486;2023-02-19T10:19:54;100244.15;;;10.62;100.00
62248;BME280;48237;50.140;8.486;2023-02-19T10:22:21;100240.82;;;10.79;99.66
62248;BME280;48237;50.140;8.486;2023-02-19T10:24:52;100241.08;;;10.74;99.80
62248;BME280;48237;50.140;8.486;2023-02-19T10:27:19;100252.00;;;10.31;100.00
62248;BME280;48237;50.140;8.486;2023-02-19T10:29:48;100255.43;;;9.05;100.00
62248;BME280;48237;50.140;8.486;2023-02-19T10:32:17;100251.48;;;10.76;95.77
62248;BME280;48237;50.140;8.486;2023-02-19T10:34:45;100249.49;;;11.38;91.84
62248;BME280;48237;50.140;8.486;2023-02-19T10:37:14;100254.60;;;11.58;93.93
62248;BME280;48237;50.140;8.486;2023-02-19T10:39:44;100261.06;;;11.37;96.20
62248;BME280;48237;50.140;8.486;2023-02-19T10:42:18;100270.23;;;10.84;95.41
62248;BME280;48237;50.140;8.486;2023-02-19T10:44:48;100275.15;;;11.09;93.14
62248;BME280;48237;50.140;8.486;2023-02-19T10:47:19;100282.07;;;11.84;87.83
62248;BME280;48237;50.140;8.486;2023-02-19T10:49:48;100282.89;;;11.45;89.25
62248;BME280;48237;50.140;8.486;2023-02-19T10:52:19;100278.64;;;11.49;86.69
62248;BME280;48237;50.140;8.486;2023-02-19T10:54:50;100291.46;;;10.92;94.43
62248;BME280;48237;50.140;8.486;2023-02-19T10:57:29;100294.86;;;11.70;91.94
62248;BME280;48237;50.140;8.486;2023-02-19T10:59:58;100299.57;;;11.64;92.47
62248;BME280;48237;50.140;8.486;2023-02-19T11:02:27;100301.88;;;10.58;100.00
62248;BME280;48237;50.140;8.486;2023-02-19T11:05:05;100300.74;;;10.30;100.00
62248;BME280;48237;50.140;8.486;2023-02-19T11:07:44;100303.03;;;11.60;95.16
62248;BME280;48237;50.140;8.486;2023-02-19T11:10:24;100312.03;;;11.33;99.10
62248;BME280;48237;50.140;8.486;2023-02-19T11:12:54;100306.92;;;11.55;94.46
62248;BME280;48237;50.140;8.486;2023-02-19T11:15:25;100307.21;;;11.14;100.00
62248;BME280;48237;50.140;8.486;2023-02-19T11:17:55;100306.64;;;11.66;96.21
62248;BME280;48237;50.140;8.486;2023-02-19T11:20:24;100308.70;;;10.65;100.00
62248;BME280;48237;50.140;8.486;2023-02-19T11:22:56;100304.42;;;9.69;100.00
62248;BME280;48237;50.140;8.486;2023-02-19T11:25:24;100309.63;;;9.91;100.00
62248;BME280;48237;50.140;8.486;2023-02-19T11:27:54;100315.88;;;10.07;100.00
62248;BME280;48237;50.140;8.486;2023-02-19T11:30:34;100316.49;;;8.24;100.00
62248;BME280;48237;50.140;8.486;2023-02-19T11:33:20;100309.34;;;10.15;100.00
62248;BME280;48237;50.140;8.486;2023-02-19T11:35:50;100303.78;;;11.65;96.84
62248;BME280;48237;50.140;8.486;2023-02-19T11:38:18;100299.91;;;11.98;89.19
62248;BME280;48237;50.140;8.486;2023-02-19T11:40:51;100306.92;;;12.17;87.74
62248;BME280;48237;50.140;8.486;2023-02-19T11:43:32;100307.27;;;12.46;94.09
62248;BME280;48237;50.140;8.486;2023-02-19T11:46:05;100303.71;;;11.88;90.02
62248;BME280;48237;50.140;8.486;2023-02-19T11:48:52;100308.52;;;11.88;97.03
62248;BME280;48237;50.140;8.486;2023-02-19T11:51:35;100316.55;;;11.58;97.16
62248;BME280;48237;50.140;8.486;2023-02-19T11:54:15;100306.50;;;11.75;88.13
62248;BME280;48237;50.140;8.486;2023-02-19T11:56:48;100301.23;;;12.11;88.41
62248;BME280;48237;50.140;8.486;2023-02-19T11:59:22;100299.88;;;11.67;91.16
62248;BME280;48237;50.140;8.486;2023-02-19T12:02:13;100301.18;;;11.60;91.57
62248;BME280;48237;50.140;8.486;2023-02-19T12:05:59;100301.31;;;11.69;88.78
62248;BME280;48237;50.140;8.486;2023-02-19T12:10:48;100298.32;;;12.10;89.72
62248;BME280;48237;50.140;8.486;2023-02-19T12:13:26;100302.72;;;11.28;88.45
62248;BME280;48237;50.140;8.486;2023-02-19T12:16:09;100303.07;;;11.07;92.37
62248;BME280;48237;50.140;8.486;2023-02-19T12:18:50;100311.47;;;10.94;93.13
62248;BME280;48237;50.140;8.486;2023-02-19T12:21:32;100306.32;;;10.58;95.10
62248;BME280;48237;50.140;8.486;2023-02-19T12:24:25;100308.51;;;10.05;100.00
62248;BME280;48237;50.140;8.486;2023-02-19T12:27:11;100308.33;;;10.59;92.99
62248;BME280;48237;50.140;8.486;2023-02-19T12:29:52;100311.84;;;11.01;90.70
62248;BME280;48237;50.140;8.486;2023-02-19T12:32:33;100309.89;;;10.56;94.77
62248;BME280;48237;50.140;8.486;2023-02-19T12:35:23;100317.57;;;10.10;95.07
62248;BME280;48237;50.140;8.486;2023-02-19T12:37:58;100328.30;;;10.82;95.32
62248;BME280;48237;50.140;8.486;2023-02-19T12:40:37;100319.82;;;10.20;93.79
62248;BME280;48237;50.140;8.486;2023-02-19T12:43:14;100316.37;;;11.02;92.99
62248;BME280;48237;50.140;8.486;2023-02-19T12:45:46;100310.87;;;10.47;94.76
62248;BME280;48237;50.140;8.486;2023-02-19T12:48:23;100302.01;;;10.51;98.68
62248;BME280;48237;50.140;8.486;2023-02-19T12:50:55;100300.19;;;10.75;93.42
62248;BME280;48237;50.140;8.486;2023-02-19T12:53:32;100296.60;;;11.06;96.66
62248;BME280;48237;50.140;8.486;2023-02-19T12:56:05;100295.30;;;10.59;89.55
62248;BME280;48237;50.140;8.486;2023-02-19T12:58:39;100299.11;;;10.74;96.88
62248;BME280;48237;50.140;8.486;2023-02-19T13:01:13;100294.97;;;11.61;87.01
62248;BME280;48237;50.140;8.486;2023-02-19T13:03:44;100289.31;;;10.89;90.22
62248;BME280;48237;50.140;8.486;2023-02-19T13:06:24;100291.89;;;10.96;89.89
62248;BME280;48237;50.140;8.486;2023-02-19T13:08:55;100300.53;;;11.57;87.80
62248;BME280;48237;50.140;8.486;2023-02-19T13:11:28;100309.35;;;11.36;86.57
62248;BME280;48237;50.140;8.486;2023-02-19T13:14:02;100312.60;;;10.68;88.99
62248;BME280;48237;50.140;8.486;2023-02-19T13:16:30;100313.15;;;10.91;86.95
62248;BME280;48237;50.140;8.486;2023-02-19T13:19:00;100311.54;;;10.61;90.91
62248;BME280;48237;50.140;8.486;2023-02-19T13:21:29;100310.00;;;10.77;90.17